Warnerville, NY (12187)

8:51 PM EST on November 24, 2014 (GMT -0500)
Cobleskill Richmondville | Change Station
CLOSE
Current Station
Personal Weather Station
Location: Richmondville, NY
Elevation: 965 ft
Nearby Weather Stations
Active Advisory: Winter Storm Watch

Elev 965 ft 42.65 °N, 74.53 °W | Updated 2 seconds ago

Partly Cloudy
Partly Cloudy
64.0 °F
Feels Like 64.0 °F
N
0.0
Wind Variable Wind from WSW
Gusts 0.0 mph

Today
High -- | Low -- °F
--% Chance of Precip.
Yesterday
High -- | Low -- °F
Precip. -- in
7:00 AM 4:28 PM
Waxing Crescent, 8% visible
Pressure 29.56 in
Visibility 10.0 miles
Clouds Few 6000 ft
Few 9500 ft
Dew Point 56 °F
Humidity 76%
Rainfall 0.22 in
Snow Depth Not available.
UV 0 out of 12
Pollen .10 out of 12
Air Quality Not available.
Flu Activity Not available.
METAR KALB 250051Z 17011G20KT 10SM FEW060 FEW095 18/11 A2956 RMK AO2 SLP010 T01830106

More Conditions Fewer Conditions

Pressure 29.56 in
Visibility 10.0 miles
Clouds Few 6000 ft
Few 9500 ft
Dew Point 56 °F
Humidity 76%
Rainfall 0.22 in
Snow Depth Not available.
UV 0 out of 12
Pollen .10 out of 12
Air Quality Not available.
Flu Activity Not available.
METAR KALB 250051Z 17011G20KT 10SM FEW060 FEW095 18/11 A2956 RMK AO2 SLP010 T01830106

More Conditions Fewer Conditions

10-Day Weather Forecast

Almanac

Astronomy

Nov. 24, 2014 Rise Set
Actual Time
Civil Twilight
Nautical Twilight
Astronomical Twilight
Moon
Length of Visible Light
Length of Day
Tomorrow will be .
, % of the Moon is Illuminated

Today's Extremes

State Highs State Lows

Community

WunderPhotos

Upload Photos

1,773,459 photos uploaded!

WunderBlogs® & News

Nearby

Air Quality

  Air Quality AQ Index Pollutant
Not available.

Snow Depth

Station Depth Elevation

Earthquake Activity

City Distance Mag. Time & Date
Minimum magnitude displayed is 2.5.

Coastal Water Temperatures

Place Temperature

Nearby Weather Stations